Modérateurs: Staff Home-Cinéma, Staff Juridique • Utilisateurs parcourant ce forum: Aucun utilisateur enregistré et 10 invités

Tout ce qui concerne les logiciels lié au HC sur ordinateur (PC, Mac, Linux...)
Règles du forum
Avant de poster, merci de prendre connaissance des règles du forum : à lire avant de poster

Dharma Kaz win7 64bit bande annonce

Message » 24 Jan 2011 10:39

Bonjour,

Je sollicite votre aide car j'ai un problème sur xbmc Dharma version Kaz (win 7 64).
Lorsque je lance une bande annonce d'un film de ma médiathèque rien ne se passe alors qu'avec la version original de dharma cela fonctionne.

Voici mon log :

07:23:48 T:2748 M:3404161024 NOTICE: -----------------------------------------------------------------------
07:23:48 T:2748 M:3404152832 NOTICE: Starting XBMC, Platform: Windows 7, 64-bit (WoW) build 7600. Built on Dec 17 2010 (SVN:35647, compiler 1500)
07:23:48 T:2748 M:3404152832 NOTICE: Intel(R) Core(TM) i5 CPU 750 @ 2.67GHz
07:23:48 T:2748 M:3404144640 NOTICE: Desktop Resolution: 1280x1024 32Bit at 60Hz
07:23:48 T:2748 M:3404140544 NOTICE: Running with administrator rights
07:23:48 T:2748 M:3404140544 NOTICE: special://xbmc/ is mapped to: C:\Program Files (x86)\Config Kaz\XBMC
07:23:48 T:2748 M:3404140544 NOTICE: special://xbmcbin/ is mapped to: C:\Program Files (x86)\Config Kaz\XBMC
07:23:48 T:2748 M:3404140544 NOTICE: special://masterprofile/ is mapped to: C:\Users\Lud\AppData\Roaming\XBMC\userdata
07:23:49 T:2748 M:3404140544 NOTICE: special://home/ is mapped to: C:\Users\Lud\AppData\Roaming\XBMC
07:23:49 T:2748 M:3404140544 NOTICE: special://temp/ is mapped to: C:\Users\Lud\AppData\Roaming\XBMC\cache
07:23:49 T:2748 M:3404140544 NOTICE: The executable running is: C:\Program Files (x86)\Config Kaz\XBMC\XBMC.exe
07:23:49 T:2748 M:3404140544 NOTICE: Log File is located: C:\Users\Lud\AppData\Roaming\XBMC\xbmc.log
07:23:49 T:2748 M:3404140544 NOTICE: -----------------------------------------------------------------------
07:23:49 T:2748 M:3404124160 NOTICE: Setup SDL
07:23:49 T:2748 M:3403730944 NOTICE: Found screen: Moniteur Plug-and-Play générique on ATI Radeon HD 5800 Series , adapter 0.
07:23:49 T:2748 M:3403714560 NOTICE: Primary mode: 1280x1024 @ 60.00 - Full Screen
07:23:49 T:2748 M:3402534912 NOTICE: Additional mode: 640x350 @ 70.00 - Full Screen
07:23:49 T:2748 M:3400433664 NOTICE: Additional mode: 640x480 @ 59.94 - Full Screen
07:23:49 T:2748 M:3400339456 NOTICE: Additional mode: 640x480 @ 60.00 - Full Screen
07:23:49 T:2748 M:3400282112 NOTICE: Additional mode: 640x480 @ 67.00 - Full Screen
07:23:49 T:2748 M:3400273920 NOTICE: Additional mode: 640x480 @ 72.00 - Full Screen
07:23:49 T:2748 M:3400249344 NOTICE: Additional mode: 640x480 @ 75.00 - Full Screen
07:23:49 T:2748 M:3399520256 NOTICE: Additional mode: 656x496 @ 60.00 - Full Screen
07:23:49 T:2748 M:3399520256 NOTICE: Previous line repeats 2 times.
07:23:49 T:2748 M:3399520256 NOTICE: Additional mode: 656x496 @ 72.00 - Full Screen
07:23:49 T:2748 M:3399520256 NOTICE: Previous line repeats 2 times.
07:23:49 T:2748 M:3399520256 NOTICE: Additional mode: 656x496 @ 75.00 - Full Screen
07:23:49 T:2748 M:3399520256 NOTICE: Previous line repeats 2 times.
07:23:49 T:2748 M:3399520256 NOTICE: Additional mode: 720x480 @ 60.00 - Full Screen
07:23:49 T:2748 M:3399520256 NOTICE: Previous line repeats 2 times.
07:23:49 T:2748 M:3399520256 NOTICE: Additional mode: 720x480 @ 72.00 - Full Screen
07:23:49 T:2748 M:3399520256 NOTICE: Previous line repeats 2 times.
07:23:49 T:2748 M:3399520256 NOTICE: Additional mode: 720x480 @ 75.00 - Full Screen
07:23:49 T:2748 M:3399520256 NOTICE: Previous line repeats 2 times.
07:23:49 T:2748 M:3399520256 NOTICE: Additional mode: 720x576 @ 60.00 - Full Screen
07:23:49 T:2748 M:3399520256 NOTICE: Previous line repeats 2 times.
07:23:49 T:2748 M:3399520256 NOTICE: Additional mode: 720x576 @ 72.00 - Full Screen
07:23:49 T:2748 M:3399520256 NOTICE: Previous line repeats 2 times.
07:23:49 T:2748 M:3399520256 NOTICE: Additional mode: 720x576 @ 75.00 - Full Screen
07:23:49 T:2748 M:3399520256 NOTICE: Previous line repeats 2 times.
07:23:49 T:2748 M:3399520256 NOTICE: Additional mode: 800x600 @ 60.00 - Full Screen
07:23:49 T:2748 M:3399520256 NOTICE: Additional mode: 800x600 @ 72.00 - Full Screen
07:23:49 T:2748 M:3399520256 NOTICE: Additional mode: 800x600 @ 75.00 - Full Screen
07:23:49 T:2748 M:3399520256 NOTICE: Additional mode: 1024x768 @ 60.00 - Full Screen
07:23:49 T:2748 M:3399520256 NOTICE: Additional mode: 1024x768 @ 70.00 - Full Screen
07:23:49 T:2748 M:3399520256 NOTICE: Additional mode: 1024x768 @ 75.00 - Full Screen
07:23:49 T:2748 M:3399520256 NOTICE: Additional mode: 1152x864 @ 75.00 - Full Screen
07:23:49 T:2748 M:3399520256 NOTICE: Additional mode: 1280x720 @ 59.94 - Full Screen
07:23:49 T:2748 M:3399520256 NOTICE: Additional mode: 1280x720 @ 60.00 - Full Screen
07:23:49 T:2748 M:3399520256 NOTICE: Previous line repeats 2 times.
07:23:49 T:2748 M:3399520256 NOTICE: Additional mode: 1280x720 @ 72.00 - Full Screen
07:23:49 T:2748 M:3399520256 NOTICE: Previous line repeats 2 times.
07:23:49 T:2748 M:3399520256 NOTICE: Additional mode: 1280x720 @ 75.00 - Full Screen
07:23:49 T:2748 M:3399520256 NOTICE: Previous line repeats 2 times.
07:23:49 T:2748 M:3399520256 NOTICE: Additional mode: 1280x768 @ 60.00 - Full Screen
07:23:49 T:2748 M:3399520256 NOTICE: Previous line repeats 2 times.
07:23:49 T:2748 M:3399520256 NOTICE: Additional mode: 1280x768 @ 72.00 - Full Screen
07:23:49 T:2748 M:3399520256 NOTICE: Previous line repeats 2 times.
07:23:49 T:2748 M:3399520256 NOTICE: Additional mode: 1280x768 @ 75.00 - Full Screen
07:23:49 T:2748 M:3399520256 NOTICE: Previous line repeats 2 times.
07:23:49 T:2748 M:3399520256 NOTICE: Additional mode: 1280x960 @ 60.00 - Full Screen
07:23:49 T:2748 M:3399520256 NOTICE: Previous line repeats 2 times.
07:23:49 T:2748 M:3399520256 NOTICE: Additional mode: 1280x960 @ 72.00 - Full Screen
07:23:49 T:2748 M:3399520256 NOTICE: Previous line repeats 2 times.
07:23:49 T:2748 M:3399520256 NOTICE: Additional mode: 1280x960 @ 75.00 - Full Screen
07:23:49 T:2748 M:3399520256 NOTICE: Previous line repeats 2 times.
07:23:49 T:2748 M:3399520256 NOTICE: Additional mode: 1280x1024 @ 60.00 - Full Screen
07:23:49 T:2748 M:3399520256 NOTICE: Additional mode: 1280x1024 @ 72.00 - Full Screen
07:23:49 T:2748 M:3399520256 NOTICE: Additional mode: 1280x1024 @ 75.00 - Full Screen
07:23:49 T:2748 M:3399872512 NOTICE: load settings...
07:23:49 T:2748 M:3399454720 NOTICE: special://profile/ is mapped to: special://masterprofile/
07:23:49 T:2748 M:3399450624 NOTICE: loading special://masterprofile/guisettings.xml
07:23:49 T:2748 M:3399315456 NOTICE: Getting hardware information now...
07:23:49 T:2748 M:3399315456 NOTICE: Checking resolution 12
07:23:49 T:2748 M:3399303168 NOTICE: Loading player core factory settings from special://xbmc/system/playercorefactory.xml.
07:23:49 T:2748 M:3399278592 NOTICE: Loaded playercorefactory configuration
07:23:49 T:2748 M:3399270400 NOTICE: Loading player core factory settings from special://masterprofile/playercorefactory.xml.
07:23:49 T:2748 M:3399270400 NOTICE: special://masterprofile/playercorefactory.xml does not exist. Skipping.
07:23:49 T:2748 M:3399266304 NOTICE: No advancedsettings.xml to load (special://masterprofile/advancedsettings.xml)
07:23:49 T:2748 M:3399266304 NOTICE: Default DVD Player: dvdplayer
07:23:49 T:2748 M:3399266304 NOTICE: Default Video Player: dvdplayer
07:23:49 T:2748 M:3399266304 NOTICE: Default Audio Player: paplayer
07:23:49 T:2748 M:3399266304 NOTICE: Loading media sources from special://masterprofile/sources.xml
07:23:49 T:2748 M:3385905152 NOTICE: initializing playlistplayer
07:23:49 T:2748 M:3385901056 NOTICE: DONE initializing playlistplayer
07:23:50 T:2748 M:3373342720 ERROR: Error evaluating boolean expression Container(5040).HasFocus(5) + [PVR.IsRecording | PVR.HasTimer] + !Player.HasMedia
07:23:50 T:2748 M:3373277184 ERROR: Error evaluating boolean expression !PVR.IsRecording + PVR.HasTimer
07:23:50 T:2748 M:3367317504 NOTICE: CApplication::UpdateLibraries - Starting video library startup scan
07:23:50 T:2748 M:3367227392 NOTICE: initialize done
07:23:50 T:2748 M:3367161856 NOTICE: Running the application...
07:23:50 T:860 M:3367153664 NOTICE: VideoInfoScanner: Starting scan ..
07:23:50 T:2748 M:3366752256 NOTICE: ES: Starting event server
07:23:50 T:2312 M:3366739968 NOTICE: ES: Starting UDP Event server on 127.0.0.1:9777
07:23:50 T:2312 M:3366703104 NOTICE: UDP: Listening on port 9777
07:23:50 T:860 M:3345633280 NOTICE: VideoInfoScanner: Finished scan. Scanning for video info took 00:00
07:23:54 T:2748 M:3336290304 ERROR: Window Translator: Can't find window tv
07:23:54 T:2748 M:3336286208 ERROR: Error evaluating boolean expression Window.IsVisible(TV) + Control.IsVisible(10)
07:23:54 T:2748 M:3335495680 ERROR: Window Translator: Can't find window tv
07:23:54 T:2748 M:3335495680 ERROR: Error evaluating boolean expression Window.IsVisible(TV) + [Control.IsVisible(14) | Control.IsVisible(15) | Control.IsVisible(16) | Control.IsVisible(17)]
07:23:54 T:2748 M:3335495680 ERROR: Window Translator: Can't find window tv
07:23:54 T:2748 M:3335495680 ERROR: Error evaluating boolean expression Window.IsVisible(TV) + [Control.IsVisible(11) | Control.IsVisible(12) | Control.IsVisible(13)] + !Skin.HasSetting(FanartShort) + !Skin.HasSetting(FanartLong)
07:23:54 T:2748 M:3335495680 ERROR: Window Translator: Can't find window tv
07:23:54 T:2748 M:3335495680 ERROR: Error evaluating boolean expression Window.IsVisible(TV) + [Control.IsVisible(11) | Control.IsVisible(12) | Control.IsVisible(13)] + Skin.HasSetting(FanartShort)
07:23:54 T:2748 M:3335495680 ERROR: Window Translator: Can't find window tv
07:23:54 T:2748 M:3335495680 ERROR: Error evaluating boolean expression Window.IsVisible(TV) + [Control.IsVisible(11) | Control.IsVisible(12) | Control.IsVisible(13)] + Skin.HasSetting(FanartLong)
07:23:58 T:2748 M:3325116416 NOTICE: ExternalPlayer Filename: C:\MPC-XBMC\BD-player.exe
07:23:58 T:2748 M:3325116416 WARNING: ExternalPlayer: invalid value for warpcursor: none
07:23:58 T:2748 M:3325116416 NOTICE: ExternalPlayer Tweaks: hideconsole (true), hidexbmc (true), islauncher (false), warpcursor (none)
07:23:58 T:2748 M:3325112320 NOTICE: CExternalPlayer::OpenFile: http://hd.fr.mediaplayer.allocine.fr/nm ... _vf_hd.flv
07:23:58 T:580 M:3325079552 NOTICE: CExternalPlayer::Process: Player : C:\MPC-XBMC\BD-player.exe
07:23:58 T:580 M:3325079552 NOTICE: CExternalPlayer::Process: File : http://hd.fr.mediaplayer.allocine.fr/nm ... _vf_hd.flv
07:23:58 T:580 M:3325079552 NOTICE: CExternalPlayer::Process: Content:
07:23:58 T:580 M:3325079552 NOTICE: CExternalPlayer::Process: Args :
07:23:58 T:580 M:3325079552 NOTICE: CExternalPlayer::Process: Start
07:23:58 T:580 M:3325079552 NOTICE: CExternalPlayer::Process: Releasing audio device 2
07:23:58 T:580 M:3325546496 NOTICE: CExternalPlayer::Process: Hiding XBMC window
07:23:59 T:580 M:3325546496 NOTICE: CExternalPlayer::ExecuteAppW32: C:\MPC-XBMC\BD-player.exe "C:\MPC-XBMC\BD-player.exe" "http://hd.fr.mediaplayer.allocine.fr/nmedia/18/63/80/44/18787820_fa2_vf_hd.flv"
07:23:59 T:580 M:3325534208 NOTICE: CExternalPlayer::ExecuteAppW32 - Failure: 2
07:23:59 T:580 M:3325534208 NOTICE: CExternalPlayer::Process: Stop
07:23:59 T:580 M:3325546496 NOTICE: CExternalPlayer::Process: Showing XBMC window
07:23:59 T:580 M:3325538304 NOTICE: CExternalPlayer::Process: Reclaiming audio device 2
07:24:12 T:2748 M:3326545920 NOTICE: Storing total System Uptime
07:24:12 T:2748 M:3326619648 NOTICE: Saving settings
07:24:12 T:2748 M:3326779392 NOTICE: stop all
07:24:12 T:2748 M:3326779392 NOTICE: ES: Stopping event server
07:24:12 T:2312 M:3326775296 NOTICE: ES: UDP Event server stopped
07:24:12 T:2748 M:3326836736 NOTICE: stop sap announcement listener
07:24:12 T:2748 M:3326836736 NOTICE: clean cached files!
07:24:12 T:2748 M:3326832640 NOTICE: unload skin
07:24:12 T:2748 M:3345252352 NOTICE: stop python
07:24:12 T:2748 M:3360165888 NOTICE: stopped
07:24:12 T:2748 M:3360456704 NOTICE: destroy
07:24:12 T:2748 M:3360788480 NOTICE: unload sections

A priori j'ai une erreur "NOTICE: CExternalPlayer::ExecuteAppW32 - Failure: 2" mais je ne suis pas assez calé pour la résoure seul.

Pouvez-vous m'aider ?
Marsupio_714
 
Messages: 5
Inscription: 24 Jan 2011 10:29
  • offline

Annonce

Message par Google » 24 Jan 2011 10:39

Publicite

 
Encart supprimé pour les membres HCFR

Message » 24 Jan 2011 21:52

T'as l'air d'avoir beaucoup d'erreur mais je ne mis connait pas.

Par contre tu n'est pas le seul à avoir ce probleme avec la version de Kaz.

J'espère qu'il pourra résoudre ce probleme.
Labestiol88
 
Messages: 183
Inscription: 04 Nov 2009 19:39
  • offline

Message » 25 Jan 2011 10:38

En fait un des problèmes est que le lecteur externe ne lit pas tous les formats FLV, MOV ... je m'en suis rendu compte avec l'aide d'autres personnes.

C'est donc pour cela que je n'arrive pas à lire les bandes annonces en streaming.

En local avec un fichier avi cela passe sans problème.
Marsupio_714
 
Messages: 5
Inscription: 24 Jan 2011 10:29
  • offline

Message » 25 Jan 2011 19:19

Marsupio_714 a écrit:En fait un des problèmes est que le lecteur externe ne lit pas tous les formats FLV, MOV ... je m'en suis rendu compte avec l'aide d'autres personnes.


Tus as raison, j'ai fait ma petite enquête en parallèle et certaines personnes ont du mal de lire les .flv.
Labestiol88
 
Messages: 183
Inscription: 04 Nov 2009 19:39
  • offline

Message » 26 Jan 2011 9:38

En fait pour régler ce soucis il faut mettre à jour le fichier playercorefactory.xml

Deux possibilités, mettre à jour les formats supportés par le player externe (en incluant .FLV) dans la ligne concernée (les bandes annonces se lancent sous MPC en plein écran) ou réintégrer dans la boucle le paragraphe qui traite la lecture du streaming (les bandes annonces se lances sur la page de présentation du film).

J'ai bidouillé ca chez moi hier soir et les bandes annonces passent correctement maintenant.
Marsupio_714
 
Messages: 5
Inscription: 24 Jan 2011 10:29
  • offline

Message » 26 Jan 2011 18:37

Marsupio_714 a écrit:En fait pour régler ce soucis il faut mettre à jour le fichier playercorefactory.xml

Deux possibilités, mettre à jour les formats supportés par le player externe (en incluant .FLV) dans la ligne concernée (les bandes annonces se lancent sous MPC en plein écran) ou réintégrer dans la boucle le paragraphe qui traite la lecture du streaming (les bandes annonces se lances sur la page de présentation du film).

J'ai bidouillé ca chez moi hier soir et les bandes annonces passent correctement maintenant.


Je te remercie,mais les lignes que tu as posté sur XBMC-Passion je doit les mettre où dans le fichier playercorefactory ? A la suite ? Car j'ai essayer de mettre tes lignes à la suite et après other, cela ne change rien.
Labestiol88
 
Messages: 183
Inscription: 04 Nov 2009 19:39
  • offline



Retourner vers Logiciel PC Home-cinéma

 
  • Articles en relation
    Dernier message